North Spring Valley, Nevada Weather observations

Data are for 10 minute period ending at time listed.
 Day   Time   Solar   Ave.   Ave.  Ave.  Vector  Max.   Baro.   Total    
  of    of     Rad.   Air    Rel.  Wind   Wind   Wind  Press.  Precip.   
Year   Day            Temp.  Hum.  Speed  Dir.   Gust                    
2017   (PST)  Kw/m2    F      %     mph   deg.    mph    mb.     in.     
-------------------------------------------------------------------------
  81   13:20   0.48   60.0    17   17.5   174    27.5   820.1    0.00 
  81   13:30   0.45   59.8    17   17.0   176    23.9   820.0    0.00 
  81   13:40   0.42   59.9    17   15.9   179    26.7   820.0    0.00 
  81   13:50   0.40   59.6    16   15.7   189    21.4   819.9    0.00 
  81   14:00   0.39   59.2    15   15.7   190    25.7   820.0    0.00 
  81   14:10   0.41   58.9    15   15.8   189    20.8   819.9    0.00 
  81   14:20   0.45   59.1    13   12.6   202    20.8   819.9    0.00 
  81   14:30   0.40   59.2    14   12.8   207    21.2   819.9    0.00 
  81   14:40   0.39   58.9    14   13.7   187    19.1   819.8    0.00 
  81   14:50   0.48   59.4    14   12.2   194    19.9   819.7    0.00 
  81   15:00   0.57   60.1    13   13.0   188    18.5   819.6    0.00 
  81   15:10   0.49   59.9    14   14.9   181    22.4   819.4    0.00 
  81   15:20   0.11   58.7    14   13.6   186    20.8   819.3    0.00 
  81   15:30   0.30   59.3    14   11.8   186    17.8   819.0    0.00 
  81   15:40   0.45   59.4    16   14.2   173    22.6   818.9    0.00 
  81   15:50   0.41   59.1    17   14.7   172    22.1   818.8    0.00 
  81   16:00   0.29   58.8    17   13.8   176    18.7   818.9    0.00 
  81   16:10   0.42   58.5    18   14.9   168    20.2   818.9    0.00 
  81   16:20   0.32   58.7    18   13.3   173    21.0   818.7    0.00 
  81   16:30   0.26   58.4    17   12.9   178    20.3   818.7    0.00 
  81   16:40   0.05   56.7    18   13.8   170    19.6   818.6    0.00 
  81   16:50   0.10   55.8    17    7.7   194    11.9   818.8    0.00 
  81   17:00   0.07   55.7    15   11.1   202    17.0   819.0    0.00 
  81   17:10   0.06   55.2    16   10.1   202    16.5   819.1    0.00 
  81   17:20   0.08   54.5    17   10.3   234    20.1   819.1    0.00 
  81   17:30   0.06   54.0    17    7.8   232    12.4   819.0    0.00 
  81   17:40   0.02   53.3    17    6.7   225    12.6   819.0    0.00 
  81   17:50   0.01   53.2    16    6.3   216    11.3   819.0    0.00 
  81   18:00   0.00   53.0    15    8.6   209    12.7   818.9    0.00 
  81   18:10   0.00   52.7    15    6.9   195    14.1   818.8    0.00 
  81   18:20   0.00   51.7    16    6.8   202    10.2   818.8    0.00 
  81   18:30   0.00   52.0    14    9.5   190    14.2   818.8    0.00 
  81   18:40   0.00   52.0    14    7.1   194    10.7   818.7    0.00 
  81   18:50   0.00   51.0    15    1.9   170     5.9   818.5    0.00 
  81   19:00   0.00   46.5    21    3.6    96     6.0   818.4    0.00 
  81   19:10   0.00   45.7    23    4.7   100     8.1   818.3    0.00 
  81   19:20   0.00   44.3    26    2.9   346     5.8   818.5    0.00 
  81   19:30   0.00   46.0    22    5.6   347     8.7   818.5    0.00 
  81   19:40   0.00   50.8    16    2.9    42     5.8   818.5    0.00 
  81   19:50   0.00   48.9    24    6.2   324    15.3   818.5    0.00 
  81   20:00   0.00   47.6    26    7.5   120    13.7   818.7    0.00 
  81   20:10   0.00   46.6    35   13.8    60    20.5   819.3    0.00 
  81   20:20   0.00   45.1    53   14.9    10    23.1   819.4    0.00 
  81   20:30   0.00   44.5    56   17.3     7    23.7   819.2    0.00 
  81   20:40   0.00   43.9    58   16.9   358    25.4   819.5    0.00 
  81   20:50   0.00   43.5    59   13.4     0    19.6   819.5    0.00 
  81   21:00   0.00   43.0    60   12.2   359    18.5   819.4    0.00 
  81   21:10   0.00   42.6    61   13.9     3    21.9   819.3    0.00 
  81   21:20   0.00   42.3    61   12.9   356    20.8   819.2    0.00 
  81   21:30   0.00   41.8    62   12.8     2    18.4   819.4    0.00 
  81   21:40   0.00   41.3    63   13.0   360    20.5   819.4    0.00 
  81   21:50   0.00   41.0    64   13.3   358    19.2   819.4    0.00 
  81   22:00   0.00   40.9    64   12.0   353    16.9   819.5    0.00 
  81   22:10   0.00   40.7    64   14.1   359    20.2   819.3    0.00 
  81   22:20   0.00   40.2    65   14.1   358    20.6   819.2    0.00 
  81   22:30   0.00   39.9    65   13.8   359    20.8   819.0    0.00 
  81   22:40   0.00   39.6    65   13.9   358    19.4   819.4    0.00 
  81   22:50   0.00   39.4    65   11.8   358    16.2   819.5    0.00 
  81   23:00   0.00   39.5    65    9.7   350    15.1   819.6    0.00 
  81   23:10   0.00   39.6    65   10.5   352    14.4   819.8    0.00 
  81   23:20   0.00   39.4    66    9.7     2    14.1   820.0    0.00 
  81   23:30   0.00   39.3    66    9.0   357    13.1   820.2    0.00 
  81   23:40   0.00   39.3    66    8.5   353    13.7   820.4    0.00 
  81   23:50   0.00   39.2    66    8.5   345    12.2   820.3    0.00 
  82    0:00   0.00   39.2    67    7.9   344    12.2   820.3    0.00 
  82    0:10   0.00   39.1    68    8.4   345    12.5   820.3    0.00 
  82    0:20   0.00   39.1    69    9.1   345    12.9   820.4    0.00 
  82    0:30   0.00   37.9    76    8.1   346    13.6   820.4    0.00 
  82    0:40   0.00   36.9    82    7.4   324    12.9   820.2    0.01 
  82    0:50   0.00   36.4    85    6.2   319     9.5   820.1    0.00 
  82    1:00   0.00   36.5    86    5.2   323     8.6   819.9    0.00 
  82    1:10   0.00   36.0    87    6.7   300     9.3   819.8    0.00 
  82    1:20   0.00   36.0    88    5.3   304     7.8   819.8    0.00 
  82    1:30   0.00   36.2    88    4.8   318     7.5   819.8    0.00 
  82    1:40   0.00   36.2    86    7.3   341    13.1   819.8    0.01 
  82    1:50   0.00   35.7    87    6.0   337    10.3   819.7    0.00 
  82    2:00   0.00   35.4    88    6.7   337    10.2   819.7    0.01 
  82    2:10   0.00   35.1    90    4.3   329     6.6   819.7    0.01 
  82    2:20   0.00   34.5    90    3.0   322     7.2   819.6    0.02 
  82    2:30   0.00   34.0    90    1.2    22     3.1   819.4    0.00 
  82    2:40   0.00   33.9    92    1.5     6     3.1   819.4    0.01 
  82    2:50   0.00   34.1    92    1.4     3     2.4   819.5    0.00 
  82    3:00   0.00   34.2    93    0.1    12     1.2   819.4    0.00 
  82    3:10   0.00   34.2    94    0.0    90     0.9   819.5    0.01 
  82    3:20   0.00   34.4    94    0.0     0     0.0   819.6    0.00 
  82    3:30   0.00   34.5    94    0.0     0     0.0   819.6    0.00 
  82    3:40   0.00   34.6    94    0.0     0     0.0   819.7    0.00 
  82    3:50   0.00   34.7    95    0.0     0     0.0   819.7    0.00 
  82    4:00   0.00   34.9    95    0.0     0     0.0   819.7    0.00 
  82    4:10   0.00   35.1    94    0.0     0     0.0   819.7    0.00 
  82    4:20   0.00   35.0    94    0.3    90     1.3   819.7    0.00 
  82    4:30   0.00   34.8    94    1.7   117     2.6   819.7    0.00 
  82    4:40   0.00   34.9    95    2.9   163     4.1   819.7    0.00 
  82    4:50   0.00   35.1    95    3.2   179     5.4   819.9    0.00 
  82    5:00   0.00   35.1    95    2.4   161     3.6   819.9    0.00 
  82    5:10   0.00   35.2    95    1.5   142     3.2   819.9    0.00 
  82    5:20   0.00   35.0    95    2.7   147     3.4   819.9    0.00 
  82    5:30   0.00   34.9    96    1.9   172     3.1   820.1    0.00 
  82    5:40   0.00   35.0    96    0.9   161     1.4   820.1    0.00 
  82    5:50   0.01   35.0    96    0.4   145     2.3   820.2    0.00 
  82    6:00   0.01   35.5    96    3.0   351     7.1   820.3    0.01 
  82    6:10   0.01   36.0    94    5.4   350     7.2   820.4    0.00 
  82    6:20   0.02   36.1    93    5.1    12     9.3   820.6    0.00 
  82    6:30   0.02   36.0    92    7.3     0    10.1   820.7    0.00 
  82    6:40   0.03   36.1    91    6.8   347     9.5   820.8    0.00 
  82    6:50   0.04   36.1    91    5.8   341     9.6   820.8    0.00 
  82    7:00   0.04   36.3    91    5.3   339     7.3   821.0    0.01 
  82    7:10   0.05   36.5    90    6.0   343    10.1   821.1    0.00 
  82    7:20   0.06   36.7    90    8.3   352    12.6   821.2    0.00 
  82    7:30   0.08   36.8    89    7.2   340    10.3   821.2    0.00 
  82    7:40   0.11   37.3    89    7.4   344    11.5   821.3    0.00 
  82    7:50   0.11   37.5    87    8.1   342    11.4   821.3    0.00 
  82    8:00   0.11   37.9    86    8.3   343    12.3   821.5    0.00 
  82    8:10   0.07   38.2    85   10.7   356    16.3   821.5    0.00 
  82    8:20   0.09   38.4    82   13.4     6    19.4   821.6    0.00 
  82    8:30   0.14   38.4    82   13.9     7    19.0   821.8    0.00 
  82    8:40   0.14   38.3    82   14.3     9    20.1   821.8    0.00 
  82    8:50   0.18   38.6    81   14.5     6    23.0   821.9    0.00 
  82    9:00   0.32   39.8    76   16.8     6    23.9   822.0    0.00 
  82    9:10   0.12   41.7    74   16.7     6    24.5   822.1    0.00 
  82    9:20   0.42   42.6    68   18.6     5    24.5   822.3    0.00 
  82    9:30   0.07   41.8    67   17.9     9    30.6   822.4    0.00 
  82    9:40   0.27   41.4    65   18.2     6    28.1   822.6    0.00 
  82    9:50   0.29   41.8    63   17.0     1    24.7   822.7    0.00 
  82   10:00   0.28   42.0    62   16.8   358    24.5   822.9    0.00 
  82   10:10   0.49   43.3    60   15.4     0    21.5   822.9    0.00 
  82   10:20   0.80   44.8    58   17.0     8    23.5   823.0    0.00 
  82   10:30   0.62   45.2    56   15.6     2    21.5   823.2    0.00 
  82   10:40   0.66   45.3    57   14.4     4    21.7   823.3    0.00 
  82   10:50   0.63   45.6    53   14.5     6    20.3   823.4    0.00 
  82   11:00   0.59   46.1    52   13.0   355    18.8   823.4    0.00 
  82   11:10   0.68   46.9    45   13.5   353    22.3   823.4    0.00 
  82   11:20   0.66   47.4    42   13.7   348    20.3   823.4    0.00 
  82   11:30   0.78   48.1    40   14.8   335    22.6   823.4    0.00 
  82   11:40   0.94   48.8    37   16.0   329    23.2   823.4    0.00 
  82   11:50   0.95   49.6    34   17.8   331    27.2   823.4    0.00 
  82   12:00   0.92   49.9    34   16.5   338    24.5   823.5    0.00 
  82   12:10   0.89   50.4    33   15.1   326    21.7   823.5    0.00 
  82   12:20   0.91   50.5    32   14.7   334    22.2   823.5    0.00 
  82   12:30   0.92   51.3    31   15.4   339    25.4   823.5    0.00 
  82   12:40   0.93   51.4    30   14.3   330    20.8   823.5    0.00 
  82   12:50   0.91   51.7    30   15.6   321    26.2   823.6    0.00 
  82   13:00   0.90   51.7    29   15.2   315    27.0   823.7    0.00 
  82   13:10   0.89   52.1    30   13.9   327    24.6   823.7    0.00 

Return to North Spring Valley graphs page.


Western Regional Climate Center,wrcc@dri.edu